Time;durP1;ratioP1;P1;durP2;ratioP2;P2;SDS_P1;SDS_P2;PMS_P1;PMS_P2;Temp;Humidity;BMP_temperature;BMP_pressure;BME280_temperature;BME280_humidity;BME280_pressure;Samples;Min_cycle;Max_cycle;Signal;HPM_P1;HPM_P2
2022/03/27 00:01:35;;;;;;;29.52;11.43;;;12.50;66.30;;;;;;4903661;29;20099;-82
2022/03/27 00:04:01;;;;;;;25.92;11.35;;;12.40;66.40;;;;;;4912008;29;20021;-79
2022/03/27 00:06:28;;;;;;;23.55;10.95;;;12.40;66.60;;;;;;4910900;29;20037;-82
2022/03/27 00:08:53;;;;;;;30.70;12.15;;;12.40;66.80;;;;;;4904370;29;20107;-80
2022/03/27 00:11:27;;;;;;;31.05;13.02;;;12.40;66.80;;;;;;4900959;29;20044;-81
2022/03/27 00:14:00;;;;;;;30.55;11.85;;;12.40;66.90;;;;;;4902956;29;20051;-81
2022/03/27 00:16:27;;;;;;;30.13;12.45;;;12.40;66.90;;;;;;4907574;29;20031;-78
2022/03/27 00:18:53;;;;;;;27.42;13.07;;;12.30;67.50;;;;;;4910850;29;20032;-83
2022/03/27 00:21:21;;;;;;;26.60;12.45;;;12.30;67.30;;;;;;4914344;29;20466;-83
2022/03/27 00:23:47;;;;;;;27.15;13.60;;;12.30;67.70;;;;;;4917289;29;20084;-82
2022/03/27 00:26:14;;;;;;;29.63;12.65;;;12.40;67.90;;;;;;4923522;29;20040;-81
2022/03/27 00:28:40;;;;;;;30.05;13.02;;;12.40;68.00;;;;;;4933915;29;20080;-81
2022/03/27 00:31:08;;;;;;;26.05;13.07;;;12.40;67.90;;;;;;4939632;29;20086;-79
2022/03/27 00:33:35;;;;;;;36.42;13.10;;;12.50;67.90;;;;;;4940173;29;20024;-80
2022/03/27 00:36:03;;;;;;;28.38;13.45;;;12.50;67.80;;;;;;4939770;29;20024;-80
2022/03/27 00:38:29;;;;;;;35.83;14.77;;;12.50;67.90;;;;;;4939680;29;20016;-80
2022/03/27 00:40:56;;;;;;;29.88;13.85;;;12.50;68.00;;;;;;4940025;29;20052;-81
2022/03/27 00:43:23;;;;;;;31.70;14.23;;;12.60;68.20;;;;;;4935654;29;20040;-79
2022/03/27 00:45:50;;;;;;;31.17;14.23;;;12.60;68.60;;;;;;4934444;29;20036;-82
2022/03/27 00:48:20;;;;;;;25.60;12.80;;;12.60;68.60;;;;;;4921967;29;20108;-81
2022/03/27 00:50:48;;;;;;;25.75;12.95;;;12.70;68.60;;;;;;4928209;29;20044;-83
2022/03/27 00:53:14;;;;;;;26.98;11.27;;;12.70;68.50;;;;;;4922173;29;20024;-82
2022/03/27 00:55:40;;;;;;;25.55;12.75;;;12.80;69.60;;;;;;4922071;29;20032;-82
2022/03/27 00:58:06;;;;;;;31.58;12.98;;;12.80;68.90;;;;;;4926430;29;20046;-80
2022/03/27 01:01:02;;;;;;;29.65;12.85;;;12.80;69.30;;;;;;4927869;29;20048;-81
2022/03/27 01:03:28;;;;;;;27.67;12.40;;;12.90;69.10;;;;;;4919035;29;20062;-80
2022/03/27 01:05:57;;;;;;;30.25;13.23;;;12.90;69.20;;;;;;4940423;29;20047;-79
2022/03/27 01:14:01;;;;;;;28.52;12.93;;;13.00;69.40;;;;;;4964901;23;20056;-83
2022/03/27 01:16:36;;;;;;;30.20;13.90;;;13.00;69.60;;;;;;4918688;29;20032;-83
2022/03/27 01:19:03;;;;;;;26.35;13.70;;;13.00;69.60;;;;;;4916893;29;20222;-84
2022/03/27 01:21:29;;;;;;;23.98;12.77;;;13.00;69.60;;;;;;4913712;29;20033;-83
2022/03/27 01:23:55;;;;;;;29.27;13.75;;;13.00;69.80;;;;;;4915057;29;20040;-84
2022/03/27 01:26:23;;;;;;;29.15;13.65;;;13.00;70.00;;;;;;4913437;29;20576;-82
2022/03/27 01:28:49;;;;;;;27.73;14.77;;;13.00;69.70;;;;;;4915569;29;20044;-85
2022/03/27 01:31:15;;;;;;;32.78;15.05;;;12.90;70.50;;;;;;4916360;29;20032;-82
2022/03/27 01:33:41;;;;;;;30.67;14.90;;;12.90;70.00;;;;;;4922124;29;20083;-86
2022/03/27 01:36:07;;;;;;;32.47;14.77;;;12.90;70.10;;;;;;4918443;29;20074;-84
2022/03/27 01:38:32;;;;;;;29.48;15.13;;;12.90;70.30;;;;;;4917278;29;20049;-82
2022/03/27 01:40:58;;;;;;;36.47;15.35;;;12.80;70.30;;;;;;4917153;29;20028;-84
2022/03/27 01:43:24;;;;;;;32.47;15.07;;;12.70;70.50;;;;;;4917310;29;20165;-84
2022/03/27 01:45:50;;;;;;;29.98;14.48;;;12.70;70.60;;;;;;4914396;29;20028;-85
2022/03/27 01:48:15;;;;;;;30.48;14.85;;;12.60;70.70;;;;;;4912466;29;20032;-83
2022/03/27 01:50:41;;;;;;;35.67;16.42;;;12.60;70.80;;;;;;4913878;29;20088;-83
2022/03/27 01:53:07;;;;;;;33.30;15.30;;;12.50;71.10;;;;;;4911940;29;20032;-82
2022/03/27 01:55:32;;;;;;;35.05;15.48;;;12.40;72.00;;;;;;4917065;29;20021;-83
2022/03/27 01:57:59;;;;;;;34.88;16.02;;;12.30;71.70;;;;;;4918125;29;20053;-84
2022/03/27 02:00:25;;;;;;;33.53;16.45;;;12.30;72.50;;;;;;4919083;29;20029;-85
2022/03/27 02:02:53;;;;;;;38.55;16.95;;;12.20;73.70;;;;;;4918928;29;20089;-81
2022/03/27 02:05:19;;;;;;;34.38;16.77;;;12.10;75.00;;;;;;4918539;29;20025;-83
2022/03/27 02:07:45;;;;;;;38.83;18.65;;;12.00;75.10;;;;;;4922848;29;20028;-83
2022/03/27 02:10:11;;;;;;;35.45;18.90;;;11.90;74.30;;;;;;4924097;29;20053;-82
2022/03/27 02:12:37;;;;;;;46.80;18.90;;;11.80;74.10;;;;;;4923104;29;20028;-87
2022/03/27 02:15:08;;;;;;;39.33;18.23;;;11.70;74.10;;;;;;4924502;29;20082;-84
2022/03/27 02:17:39;;;;;;;38.47;18.30;;;11.60;74.30;;;;;;4918216;29;20055;-83
2022/03/27 02:20:09;;;;;;;49.65;22.95;;;11.60;73.50;;;;;;4916258;29;20025;-83
2022/03/27 02:22:35;;;;;;;41.10;19.58;;;11.60;73.90;;;;;;4915813;29;20032;-83
2022/03/27 02:25:01;;;;;;;45.70;21.20;;;11.50;73.80;;;;;;4916231;29;20029;-84
2022/03/27 02:27:27;;;;;;;50.40;22.98;;;11.40;74.40;;;;;;4912198;29;20040;-85
2022/03/27 02:29:53;;;;;;;48.97;21.63;;;11.30;74.60;;;;;;4890764;29;20043;-84
2022/03/27 02:32:19;;;;;;;50.85;23.17;;;11.30;75.10;;;;;;4909019;29;20049;-84
2022/03/27 02:34:45;;;;;;;53.72;22.90;;;11.20;74.60;;;;;;4909307;29;20052;-83
2022/03/27 02:37:13;;;;;;;46.70;22.15;;;11.10;74.60;;;;;;4908809;29;20044;-84
2022/03/27 02:39:40;;;;;;;54.22;22.95;;;11.10;74.40;;;;;;4910940;29;20025;-85
2022/03/27 02:42:06;;;;;;;50.22;22.90;;;11.00;74.40;;;;;;4897325;29;20040;-83
2022/03/27 02:44:32;;;;;;;55.63;25.05;;;11.00;74.30;;;;;;4906786;29;20049;-80
2022/03/27 02:46:59;;;;;;;57.13;24.05;;;11.00;74.40;;;;;;4916796;29;20036;-81
2022/03/27 02:49:25;;;;;;;47.67;24.00;;;10.90;74.90;;;;;;4916832;29;20097;-84
2022/03/27 02:51:51;;;;;;;46.50;22.65;;;10.80;75.00;;;;;;4917437;29;20043;-86
2022/03/27 02:54:16;;;;;;;50.00;21.50;;;10.80;75.40;;;;;;4916148;29;20040;-83
2022/03/27 02:56:42;;;;;;;38.13;19.55;;;10.80;76.30;;;;;;4901070;29;20084;-81
2022/03/27 02:59:08;;;;;;;42.95;20.15;;;10.70;77.20;;;;;;4915808;29;20028;-82
2022/03/27 03:01:34;;;;;;;39.63;19.88;;;10.70;77.50;;;;;;4915876;29;20122;-84
2022/03/27 03:04:01;;;;;;;39.88;20.80;;;10.70;78.10;;;;;;4914617;29;20025;-83
2022/03/27 03:06:30;;;;;;;48.33;21.20;;;10.70;78.50;;;;;;4915959;29;20056;-81
2022/03/27 03:08:56;;;;;;;47.78;20.33;;;10.70;78.60;;;;;;4914248;29;20072;-85
2022/03/27 03:11:21;;;;;;;51.67;21.15;;;10.70;79.50;;;;;;4912812;29;20040;-84
2022/03/27 03:13:49;;;;;;;38.97;18.33;;;10.70;79.90;;;;;;4915781;29;20045;-83
2022/03/27 03:16:16;;;;;;;35.90;16.38;;;10.70;81.00;;;;;;4916486;29;20036;-85
2022/03/27 03:18:43;;;;;;;36.47;15.70;;;10.70;86.70;;;;;;4920529;29;20027;-87
2022/03/27 03:21:08;;;;;;;33.13;14.85;;;10.60;90.00;;;;;;4920327;29;20033;-85
2022/03/27 03:23:34;;;;;;;32.53;13.82;;;10.60;92.20;;;;;;4918463;29;20035;-84
2022/03/27 03:26:00;;;;;;;33.78;14.73;;;10.60;94.50;;;;;;4919930;29;20027;-85
2022/03/27 03:28:26;;;;;;;29.17;14.13;;;10.60;96.60;;;;;;4921797;29;20052;-85
2022/03/27 03:30:52;;;;;;;25.58;13.43;;;10.60;97.80;;;;;;4922953;29;20033;-86
2022/03/27 03:33:19;;;;;;;26.10;12.88;;;10.60;99.40;;;;;;4920580;29;20045;-84
2022/03/27 03:35:46;;;;;;;26.55;12.88;;;10.60;99.90;;;;;;4922546;29;20044;-85
2022/03/27 03:38:12;;;;;;;27.20;12.75;;;10.60;99.90;;;;;;4916081;29;20056;-82
2022/03/27 03:40:41;;;;;;;25.77;11.77;;;10.60;99.90;;;;;;4910867;29;20060;-85
2022/03/27 03:43:09;;;;;;;27.00;12.48;;;10.60;99.90;;;;;;4922257;29;20017;-86
2022/03/27 03:45:36;;;;;;;22.02;11.18;;;10.70;99.90;;;;;;4923635;29;20024;-84
2022/03/27 03:48:03;;;;;;;23.67;12.13;;;10.70;99.90;;;;;;4923965;29;20008;-84
2022/03/27 03:50:33;;;;;;;33.35;13.50;;;10.70;99.90;;;;;;4923207;29;20035;-85
2022/03/27 03:52:59;;;;;;;34.17;17.23;;;10.60;99.90;;;;;;4923600;29;20048;-87
2022/03/27 03:55:26;;;;;;;32.08;15.93;;;10.60;99.90;;;;;;4923758;29;20016;-86
2022/03/27 03:57:52;;;;;;;37.28;15.45;;;10.60;99.90;;;;;;4923517;29;20045;-83
2022/03/27 04:00:17;;;;;;;31.55;16.60;;;10.60;99.90;;;;;;4923483;29;20096;-83
2022/03/27 04:02:43;;;;;;;34.78;16.33;;;10.60;99.70;;;;;;4921725;29;20029;-83
2022/03/27 04:05:09;;;;;;;31.08;17.10;;;10.60;99.10;;;;;;4912365;29;20041;-83
2022/03/27 04:07:35;;;;;;;34.70;18.05;;;10.70;98.70;;;;;;4909149;29;20107;-84
2022/03/27 04:10:03;;;;;;;37.25;18.45;;;10.70;98.30;;;;;;4908922;29;20032;-85
2022/03/27 04:12:30;;;;;;;31.80;15.68;;;10.70;98.10;;;;;;4906406;29;20409;-84
2022/03/27 04:14:56;;;;;;;29.17;14.95;;;10.70;98.60;;;;;;4907374;29;20437;-83
2022/03/27 04:17:21;;;;;;;30.67;14.57;;;10.80;99.30;;;;;;4906989;29;20033;-85
2022/03/27 04:19:47;;;;;;;29.52;14.55;;;10.80;99.40;;;;;;4905461;29;20080;-84
2022/03/27 04:22:13;;;;;;;31.67;14.80;;;10.70;99.70;;;;;;4904584;29;20068;-85
2022/03/27 04:24:38;;;;;;;26.27;14.18;;;10.80;99.90;;;;;;4913795;29;20100;-84
2022/03/27 04:27:04;;;;;;;26.05;13.50;;;10.80;99.90;;;;;;4917435;29;20036;-84
2022/03/27 04:29:30;;;;;;;24.05;13.27;;;10.80;99.90;;;;;;4921630;29;20036;-86
2022/03/27 04:31:56;;;;;;;22.23;12.00;;;10.80;99.90;;;;;;4918069;29;20048;-83
2022/03/27 04:34:22;;;;;;;23.98;11.68;;;10.80;99.90;;;;;;4915713;29;20020;-85
2022/03/27 04:36:47;;;;;;;22.98;11.68;;;10.80;99.90;;;;;;4894724;29;20561;-84
2022/03/27 04:39:13;;;;;;;19.95;11.32;;;10.80;99.90;;;;;;4914065;29;20064;-85
2022/03/27 04:41:39;;;;;;;19.23;10.48;;;10.80;99.90;;;;;;4915568;29;20115;-84
2022/03/27 04:44:06;;;;;;;18.67;10.10;;;10.80;99.90;;;;;;4907274;29;20047;-82
2022/03/27 04:46:32;;;;;;;19.65;10.07;;;10.80;99.90;;;;;;4910097;29;20048;-84
2022/03/27 04:48:58;;;;;;;18.92;9.35;;;10.80;99.90;;;;;;4909080;29;20056;-83
2022/03/27 04:51:24;;;;;;;17.38;9.60;;;10.80;99.90;;;;;;4907815;29;20029;-84
2022/03/27 04:53:50;;;;;;;17.70;9.70;;;10.80;99.90;;;;;;4906191;29;20037;-84
2022/03/27 04:56:17;;;;;;;16.58;9.85;;;10.80;99.90;;;;;;4906677;29;20029;-83
2022/03/27 04:58:43;;;;;;;20.00;10.13;;;10.80;99.90;;;;;;4906384;29;20033;-83
2022/03/27 05:01:10;;;;;;;19.42;10.07;;;10.80;99.90;;;;;;4909507;29;20029;-85
2022/03/27 05:03:36;;;;;;;21.23;10.02;;;10.80;99.90;;;;;;4919737;29;20048;-84
2022/03/27 05:06:02;;;;;;;18.92;9.77;;;10.80;99.90;;;;;;4922619;29;20088;-87
2022/03/27 05:08:27;;;;;;;18.17;9.20;;;10.80;99.90;;;;;;4921862;29;20032;-83
2022/03/27 05:10:54;;;;;;;21.23;9.73;;;10.80;99.90;;;;;;4920217;29;20041;-81
2022/03/27 05:13:19;;;;;;;15.25;9.00;;;10.80;99.90;;;;;;4920862;29;20029;-86
2022/03/27 05:15:46;;;;;;;15.85;8.65;;;10.80;99.90;;;;;;4918843;29;20040;-84
2022/03/27 05:18:12;;;;;;;23.10;9.73;;;10.80;99.90;;;;;;4904799;29;20028;-83
2022/03/27 05:20:41;;;;;;;17.02;9.35;;;10.80;99.90;;;;;;4903209;29;20402;-83
2022/03/27 05:23:07;;;;;;;16.08;8.90;;;10.70;99.90;;;;;;4903993;29;20041;-85
2022/03/27 05:25:40;;;;;;;18.10;9.35;;;10.80;99.90;;;;;;4916984;29;20442;-82
2022/03/27 05:28:10;;;;;;;21.23;9.40;;;10.80;99.90;;;;;;4908084;29;20066;-82
2022/03/27 05:30:37;;;;;;;16.35;9.43;;;10.80;99.90;;;;;;4915847;29;20028;-86
2022/03/27 05:33:03;;;;;;;15.93;8.50;;;10.80;99.90;;;;;;4903004;29;20049;-83
2022/03/27 05:35:30;;;;;;;13.48;8.18;;;10.80;99.90;;;;;;4903752;29;20032;-85
2022/03/27 05:37:56;;;;;;;18.00;8.60;;;10.80;99.90;;;;;;4892895;29;20037;-87
2022/03/27 05:40:23;;;;;;;15.50;9.07;;;10.80;99.90;;;;;;4913438;29;20048;-84
2022/03/27 05:42:51;;;;;;;15.07;9.00;;;10.80;99.90;;;;;;4913746;29;20068;-85
2022/03/27 05:45:18;;;;;;;16.70;8.68;;;10.70;99.90;;;;;;4904148;29;20047;-85
2022/03/27 05:47:44;;;;;;;20.98;9.57;;;10.80;99.90;;;;;;4903088;29;20031;-84
2022/03/27 05:50:12;;;;;;;14.13;7.97;;;10.80;99.90;;;;;;4903331;29;20033;-84
2022/03/27 05:52:38;;;;;;;16.98;8.38;;;10.80;99.90;;;;;;4903884;29;20041;-84
2022/03/27 05:55:05;;;;;;;19.73;9.02;;;10.80;99.90;;;;;;4914783;29;20033;-84
2022/03/27 05:57:31;;;;;;;15.00;7.90;;;10.80;99.90;;;;;;4914168;29;20029;-85
2022/03/27 05:59:57;;;;;;;17.33;9.05;;;10.80;99.90;;;;;;4906054;29;20033;-85
2022/03/27 06:02:23;;;;;;;17.52;8.73;;;10.80;99.90;;;;;;4905086;29;20034;-84
2022/03/27 06:04:49;;;;;;;16.20;8.73;;;10.80;99.90;;;;;;4913290;29;20028;-84
2022/03/27 06:07:15;;;;;;;16.48;8.57;;;10.90;99.90;;;;;;4916590;29;20560;-84
2022/03/27 06:09:41;;;;;;;20.23;9.68;;;10.90;99.90;;;;;;4927718;29;20052;-84
2022/03/27 06:12:07;;;;;;;30.13;10.88;;;10.90;99.90;;;;;;4925723;29;20118;-84
2022/03/27 06:14:33;;;;;;;26.27;12.35;;;11.00;99.90;;;;;;4936544;29;20099;-84
2022/03/27 06:16:59;;;;;;;22.67;12.20;;;11.10;99.80;;;;;;4936074;29;20044;-88
2022/03/27 06:19:26;;;;;;;30.85;12.73;;;11.10;99.30;;;;;;4930842;29;20107;-85
2022/03/27 06:21:52;;;;;;;20.05;11.45;;;11.10;99.40;;;;;;4924019;29;20067;-86
2022/03/27 06:24:18;;;;;;;19.92;10.40;;;11.10;99.60;;;;;;4924603;29;20083;-84
2022/03/27 06:26:44;;;;;;;20.42;9.73;;;11.10;99.20;;;;;;4914568;29;20020;-85
2022/03/27 06:29:09;;;;;;;19.75;10.02;;;11.10;99.10;;;;;;4941385;29;20170;-86
2022/03/27 06:31:38;;;;;;;16.33;9.65;;;11.20;98.90;;;;;;4942244;29;20031;-86
2022/03/27 06:34:06;;;;;;;14.93;9.10;;;11.20;98.70;;;;;;4941941;29;20083;-87
2022/03/27 06:36:34;;;;;;;21.92;9.25;;;11.20;98.50;;;;;;4925980;29;20020;-86
2022/03/27 06:38:59;;;;;;;18.95;9.63;;;11.30;98.20;;;;;;4941993;29;20036;-87
2022/03/27 06:41:26;;;;;;;20.83;10.30;;;11.30;98.20;;;;;;4941400;29;20043;-86
2022/03/27 06:43:52;;;;;;;18.88;9.60;;;11.40;98.10;;;;;;4928194;29;20119;-86
2022/03/27 06:46:18;;;;;;;16.92;9.20;;;11.40;97.80;;;;;;4935133;29;20031;-86
2022/03/27 06:48:44;;;;;;;17.65;9.52;;;11.40;97.70;;;;;;4938988;29;20099;-87
2022/03/27 06:51:10;;;;;;;17.50;9.38;;;11.50;97.50;;;;;;4934983;29;20059;-88
2022/03/27 06:53:36;;;;;;;16.38;9.07;;;11.40;97.20;;;;;;4942792;29;20032;-88
2022/03/27 06:56:02;;;;;;;17.40;9.40;;;11.50;97.20;;;;;;4942762;29;20008;-88
2022/03/27 06:58:28;;;;;;;18.83;9.82;;;11.50;97.10;;;;;;4942164;29;20039;-87
2022/03/27 07:03:39;;;;;;;14.80;8.63;;;11.40;96.40;;;;;;4942280;29;20056;-86
2022/03/27 07:06:04;;;;;;;14.57;9.35;;;11.40;96.30;;;;;;4941923;29;20287;-85
2022/03/27 07:08:30;;;;;;;24.48;11.27;;;11.50;96.20;;;;;;4941667;29;20040;-85
2022/03/27 07:10:56;;;;;;;16.17;8.90;;;11.50;96.30;;;;;;4939509;29;20036;-85
2022/03/27 07:13:22;;;;;;;19.77;8.70;;;11.50;96.30;;;;;;4936948;29;20016;-84
2022/03/27 07:15:49;;;;;;;18.77;9.43;;;11.60;96.30;;;;;;4940861;29;20031;-87
2022/03/27 07:18:17;;;;;;;19.00;9.38;;;11.70;96.10;;;;;;4940052;29;20067;-86
2022/03/27 07:20:45;;;;;;;19.30;9.15;;;11.80;95.80;;;;;;4936627;29;20043;-85
2022/03/27 07:23:13;;;;;;;17.80;9.07;;;11.90;95.60;;;;;;4935702;29;20024;-85
2022/03/27 07:25:41;;;;;;;16.45;9.05;;;11.90;95.40;;;;;;4910519;29;20079;-84
2022/03/27 07:28:09;;;;;;;16.23;9.27;;;12.00;95.10;;;;;;4920585;29;20025;-89
2022/03/27 07:30:36;;;;;;;16.63;9.25;;;12.10;94.80;;;;;;4921723;29;20029;-87
2022/03/27 07:33:02;;;;;;;23.60;9.88;;;12.10;94.80;;;;;;4919979;29;20096;-86
2022/03/27 07:35:30;;;;;;;16.55;9.00;;;12.00;94.90;;;;;;4916545;29;20044;-88
2022/03/27 07:37:57;;;;;;;19.85;9.80;;;12.00;94.80;;;;;;4917739;29;20096;-88
2022/03/27 07:40:22;;;;;;;19.83;10.27;;;12.10;94.70;;;;;;4905275;29;20001;-87
2022/03/27 07:42:50;;;;;;;18.08;8.85;;;12.30;94.30;;;;;;4923158;29;20035;-88
2022/03/27 07:45:18;;;;;;;13.82;8.55;;;12.50;94.10;;;;;;4920792;29;20031;-87
2022/03/27 07:47:45;;;;;;;15.57;9.40;;;12.70;93.50;;;;;;4921659;29;20021;-89
2022/03/27 07:50:11;;;;;;;16.67;9.55;;;12.80;93.20;;;;;;4907456;29;20088;-91
2022/03/27 07:52:38;;;;;;;17.10;9.30;;;12.90;92.80;;;;;;4923217;29;20024;-89
2022/03/27 07:55:05;;;;;;;15.30;9.02;;;12.90;92.70;;;;;;4922692;29;20028;-92
2022/03/27 07:57:31;;;;;;;19.13;10.13;;;13.00;92.40;;;;;;4913469;29;20087;-90
2022/03/27 07:59:57;;;;;;;15.73;9.15;;;13.10;92.10;;;;;;4941925;29;20016;-88
2022/03/27 08:02:24;;;;;;;19.85;11.23;;;13.30;91.60;;;;;;4941030;29;20039;-86
2022/03/27 08:04:49;;;;;;;18.83;10.93;;;13.20;91.50;;;;;;4941558;29;20039;-89
2022/03/27 08:07:16;;;;;;;23.13;11.23;;;13.30;91.30;;;;;;4937976;29;20024;-87
2022/03/27 08:09:42;;;;;;;21.20;10.30;;;13.20;91.30;;;;;;4905985;29;20052;-85
2022/03/27 08:12:09;;;;;;;20.30;10.52;;;13.40;91.10;;;;;;4898988;29;20038;-85
2022/03/27 08:14:35;;;;;;;17.20;10.25;;;13.50;90.90;;;;;;4925959;29;20043;-86
2022/03/27 08:17:03;;;;;;;17.50;10.80;;;13.60;90.60;;;;;;4907052;29;20025;-86
2022/03/27 08:19:29;;;;;;;17.02;10.25;;;13.50;90.60;;;;;;4918566;29;20059;-87
2022/03/27 08:21:55;;;;;;;20.00;10.52;;;13.50;90.60;;;;;;4915629;29;20028;-86
2022/03/27 08:24:22;;;;;;;16.08;10.35;;;13.30;90.80;;;;;;4916805;29;20111;-86
2022/03/27 08:26:58;;;;;;;19.55;10.38;;;13.30;90.70;;;;;;4919787;29;20107;-87
2022/03/27 08:29:26;;;;;;;18.20;11.35;;;13.50;90.70;;;;;;4914184;29;20035;-87
2022/03/27 08:31:52;;;;;;;19.90;10.63;;;13.50;90.40;;;;;;4917181;29;20016;-88
2022/03/27 08:34:20;;;;;;;17.85;10.82;;;13.40;90.50;;;;;;4918619;29;20025;-88
2022/03/27 08:36:47;;;;;;;17.58;10.45;;;13.40;90.50;;;;;;4913669;29;20024;-87
2022/03/27 08:39:14;;;;;;;19.33;10.68;;;13.60;90.30;;;;;;4920660;29;20190;-88
2022/03/27 08:41:44;;;;;;;19.75;10.50;;;13.70;90.00;;;;;;4925255;29;20025;-89
2022/03/27 08:44:19;;;;;;;17.40;10.10;;;13.80;89.90;;;;;;4909853;29;20043;-88
2022/03/27 08:46:46;;;;;;;16.48;9.48;;;13.90;89.20;;;;;;4926873;29;20032;-89
2022/03/27 08:49:32;;;;;;;14.90;9.80;;;14.00;88.80;;;;;;4925246;29;20024;-90
2022/03/27 08:51:58;;;;;;;15.68;10.27;;;14.20;88.90;;;;;;4881658;29;20144;-87
2022/03/27 08:54:29;;;;;;;14.27;9.10;;;14.20;88.00;;;;;;4910316;29;20107;-89
2022/03/27 08:57:14;;;;;;;18.10;10.05;;;14.10;88.20;;;;;;4906330;29;20029;-87
2022/03/27 08:59:42;;;;;;;22.23;10.60;;;14.20;88.10;;;;;;4906711;29;20032;-84
2022/03/27 09:02:08;;;;;;;17.83;9.93;;;14.30;87.70;;;;;;4909970;29;20029;-87
2022/03/27 09:04:36;;;;;;;21.83;10.38;;;14.30;87.40;;;;;;4916650;29;20044;-86
2022/03/27 09:07:03;;;;;;;20.95;11.68;;;14.40;87.50;;;;;;4917381;29;20025;-89
2022/03/27 09:09:36;;;;;;;16.33;11.13;;;14.20;86.70;;;;;;4909115;29;20108;-87
2022/03/27 09:12:04;;;;;;;20.70;11.25;;;14.10;87.10;;;;;;4899670;29;20040;-88
2022/03/27 09:14:34;;;;;;;20.20;11.02;;;14.00;86.80;;;;;;4900792;29;20375;-85
2022/03/27 09:17:07;;;;;;;19.58;10.82;;;14.00;86.40;;;;;;4919418;29;20224;-87
2022/03/27 09:19:33;;;;;;;24.88;11.68;;;14.10;86.30;;;;;;4915307;29;20032;-89
2022/03/27 09:22:02;;;;;;;23.20;11.77;;;14.20;86.00;;;;;;4916972;29;20482;-86
2022/03/27 09:24:38;;;;;;;22.58;11.20;;;14.20;85.60;;;;;;4892784;29;20520;-86
2022/03/27 09:27:05;;;;;;;22.17;11.65;;;14.30;86.00;;;;;;4913002;29;20033;-92
2022/03/27 09:29:55;;;;;;;24.42;12.77;;;14.50;85.00;;;;;;4912612;29;20033;-88
2022/03/27 09:32:31;;;;;;;21.52;12.25;;;14.80;84.40;;;;;;4920307;29;20044;-88
2022/03/27 09:34:59;;;;;;;21.92;11.88;;;15.10;83.30;;;;;;4922952;29;20032;-89
2022/03/27 09:37:34;;;;;;;19.23;11.68;;;15.30;82.70;;;;;;4924594;29;20052;-89
2022/03/27 09:40:02;;;;;;;21.77;11.65;;;15.60;82.00;;;;;;4920161;29;20047;-89
2022/03/27 09:42:28;;;;;;;20.13;11.55;;;15.70;80.90;;;;;;4912804;29;20025;-87
2022/03/27 09:45:20;;;;;;;19.35;11.30;;;15.70;80.70;;;;;;4918046;29;20015;-88
2022/03/27 09:47:48;;;;;;;20.83;11.68;;;16.10;80.20;;;;;;4920754;29;20040;-86
2022/03/27 09:50:37;;;;;;;18.02;10.88;;;17.20;77.60;;;;;;4918562;29;20032;-88
2022/03/27 09:53:29;;;;;;;21.08;12.00;;;18.50;74.20;;;;;;4913753;29;20227;-84
2022/03/27 09:55:58;;;;;;;17.25;9.88;;;20.40;69.70;;;;;;4913000;29;20017;-83
2022/03/27 09:58:35;;;;;;;14.48;10.20;;;22.80;63.90;;;;;;4925012;29;20040;-83
2022/03/27 10:01:16;;;;;;;13.75;9.70;;;24.60;59.50;;;;;;4923799;29;20036;-85
2022/03/27 10:04:13;;;;;;;16.40;10.57;;;26.00;55.60;;;;;;4920866;29;20088;-85
2022/03/27 10:06:40;;;;;;;17.90;10.90;;;26.20;53.90;;;;;;4906163;29;20024;-84
2022/03/27 10:09:11;;;;;;;14.18;10.18;;;27.70;51.80;;;;;;4890009;29;20043;-84
2022/03/27 10:11:40;;;;;;;15.52;10.75;;;27.90;50.40;;;;;;4906048;29;20029;-92
2022/03/27 10:14:09;;;;;;;18.23;9.32;;;28.00;49.90;;;;;;4906015;29;20066;-87
2022/03/27 10:16:38;;;;;;;16.73;10.52;;;28.40;49.20;;;;;;4905967;29;20029;-88
2022/03/27 10:19:10;;;;;;;16.70;9.77;;;29.70;48.20;;;;;;4905355;29;20021;-88
2022/03/27 10:21:37;;;;;;;16.83;10.65;;;29.50;47.20;;;;;;4904330;29;20037;-89
2022/03/27 10:24:10;;;;;;;13.88;10.52;;;30.00;47.30;;;;;;4899499;29;20033;-86
2022/03/27 10:26:38;;;;;;;16.60;10.93;;;30.70;46.10;;;;;;4893992;29;20049;-86
2022/03/27 10:29:06;;;;;;;15.75;10.70;;;30.50;45.70;;;;;;4892574;29;20570;-87
2022/03/27 10:31:32;;;;;;;14.30;10.60;;;30.90;45.20;;;;;;4902256;29;20116;-88
2022/03/27 10:34:01;;;;;;;13.85;10.55;;;30.90;45.00;;;;;;4905662;29;20101;-87
2022/03/27 10:36:46;;;;;;;16.20;9.68;;;31.30;44.50;;;;;;4904911;29;20028;-90
2022/03/27 10:39:36;;;;;;;12.82;9.82;;;31.40;44.30;;;;;;4905063;29;20122;-88
2022/03/27 10:42:37;;;;;;;13.80;9.95;;;31.90;43.70;;;;;;4904676;29;20025;-87
2022/03/27 10:45:15;;;;;;;14.88;10.60;;;32.10;43.60;;;;;;4904309;29;20072;-86
2022/03/27 10:47:41;;;;;;;17.70;10.82;;;31.30;43.70;;;;;;4908956;29;20041;-90
2022/03/27 10:54:02;;;;;;;14.15;9.50;;;32.10;43.50;;;;;;4917769;29;20087;-87
2022/03/27 10:56:35;;;;;;;11.80;9.48;;;32.80;42.80;;;;;;4912011;29;20040;-88
2022/03/27 10:59:11;;;;;;;16.52;10.60;;;33.10;42.40;;;;;;4893811;29;20468;-88
2022/03/27 11:01:41;;;;;;;14.10;10.50;;;32.90;42.30;;;;;;4909430;29;20084;-90
2022/03/27 11:04:37;;;;;;;13.25;9.93;;;31.80;42.80;;;;;;4907875;29;20028;-89
2022/03/27 11:07:33;;;;;;;14.00;9.95;;;31.70;43.00;;;;;;4889803;29;20217;-91
2022/03/27 11:09:59;;;;;;;15.70;10.30;;;30.00;43.50;;;;;;4892619;29;20044;-89
2022/03/27 11:12:24;;;;;;;13.60;10.00;;;29.30;45.20;;;;;;4893825;29;20044;-89
2022/03/27 11:15:12;;;;;;;12.35;8.55;;;29.90;44.70;;;;;;4911181;29;20040;-87
2022/03/27 11:17:38;;;;;;;12.07;9.20;;;31.00;44.40;;;;;;4916986;29;20028;-89
2022/03/27 11:20:09;;;;;;;14.77;8.95;;;31.10;43.00;;;;;;4922301;29;20044;-90
2022/03/27 11:22:41;;;;;;;22.75;14.40;;;30.60;44.00;;;;;;4922172;29;20051;-90
2022/03/27 11:25:27;;;;;;;10.00;7.43;;;31.80;43.90;;;;;;4902953;29;20012;-92
2022/03/27 11:27:57;;;;;;;11.45;4.70;;;33.20;42.40;;;;;;4914519;29;20366;-84
2022/03/27 11:30:24;;;;;;;10.35;6.65;;;32.90;49.00;;;;;;4908732;29;20088;-84
2022/03/27 11:33:13;;;;;;;11.55;7.70;;;32.40;44.30;;;;;;4908320;29;20067;-85
2022/03/27 11:35:41;;;;;;;9.60;6.65;;;32.20;42.90;;;;;;4920202;29;20024;-85
2022/03/27 11:38:19;;;;;;;10.98;7.43;;;32.80;42.70;;;;;;4907374;29;20033;-85
2022/03/27 11:40:45;;;;;;;12.23;8.15;;;33.50;42.00;;;;;;4910418;29;20059;-83
2022/03/27 11:43:34;;;;;;;10.95;7.10;;;33.60;42.30;;;;;;4907467;29;20020;-84
2022/03/27 11:46:01;;;;;;;13.10;7.03;;;32.60;44.20;;;;;;4905493;29;20029;-84
2022/03/27 11:48:28;;;;;;;9.27;7.05;;;32.00;42.90;;;;;;4906092;29;20036;-84
2022/03/27 11:50:54;;;;;;;11.00;7.53;;;32.20;42.90;;;;;;4906468;29;20040;-86
2022/03/27 11:53:34;;;;;;;9.07;6.82;;;33.00;42.20;;;;;;4907462;29;20084;-82
2022/03/27 11:56:07;;;;;;;10.57;7.32;;;33.20;42.00;;;;;;4912090;29;20052;-81
2022/03/27 11:58:35;;;;;;;9.80;7.47;;;33.10;41.90;;;;;;4914278;29;20040;-85
2022/03/27 12:01:06;;;;;;;8.88;7.25;;;32.90;42.30;;;;;;4918760;29;20051;-85
2022/03/27 12:03:32;;;;;;;11.45;7.18;;;32.90;41.80;;;;;;4914718;29;20037;-83
2022/03/27 12:06:06;;;;;;;10.23;7.13;;;33.00;41.90;;;;;;4912449;29;20033;-83
2022/03/27 12:08:32;;;;;;;;;;;33.10;42.10;;;;;;4921203;29;20044;-84
2022/03/27 12:11:04;;;;;;;8.77;6.40;;;33.20;42.10;;;;;;4918259;29;20018;-85
2022/03/27 12:13:43;;;;;;;8.23;6.47;;;33.60;41.60;;;;;;4905223;29;20085;-87
2022/03/27 12:16:31;;;;;;;8.23;6.28;;;33.60;41.50;;;;;;4929272;29;20031;-87
2022/03/27 12:18:58;;;;;;;8.75;6.50;;;33.70;41.90;;;;;;4936916;29;20039;-85
2022/03/27 12:21:24;;;;;;;10.77;6.93;;;33.70;41.60;;;;;;4934844;29;20043;-87
2022/03/27 12:24:02;;;;;;;7.80;6.28;;;34.10;41.60;;;;;;4934808;29;20084;-86
2022/03/27 12:32:14;;;;;;;6.82;5.07;;;34.20;41.10;;;;;;4935916;29;19945;-86
2022/03/27 12:34:49;;;;;;;8.02;5.45;;;34.20;41.30;;;;;;4936601;29;20036;-84
2022/03/27 12:37:17;;;;;;;8.25;5.22;;;34.00;41.20;;;;;;4935185;29;20048;-85
2022/03/27 12:39:48;;;;;;;7.60;5.28;;;33.80;41.40;;;;;;4934821;29;20032;-87
2022/03/27 12:42:35;;;;;;;6.30;5.00;;;33.70;41.30;;;;;;4934084;29;20040;-86
2022/03/27 12:45:26;;;;;;;6.45;5.07;;;33.80;41.40;;;;;;4934720;29;20036;-86
2022/03/27 12:48:01;;;;;;;6.70;5.18;;;33.40;42.10;;;;;;4937323;29;20021;-84
2022/03/27 12:50:27;;;;;;;4.97;4.45;;;33.80;41.60;;;;;;4935336;29;20032;-86
2022/03/27 12:53:13;;;;;;;7.45;5.20;;;34.20;41.80;;;;;;4933653;29;20043;-86
2022/03/27 12:55:49;;;;;;;8.45;4.38;;;34.00;41.70;;;;;;4937482;29;20036;-85
2022/03/27 12:58:17;;;;;;;7.50;4.90;;;34.00;42.10;;;;;;4933145;29;20036;-86